createdAt,value
2022-09-12T00:04:47.350Z,2.10
2022-09-12T00:07:21.358Z,2.45
2022-09-12T00:12:30.287Z,2.40
2022-09-12T00:17:39.618Z,2.40
2022-09-12T00:20:13.668Z,2.63
2022-09-12T00:22:47.523Z,2.15
2022-09-12T00:27:56.194Z,2.33
2022-09-12T00:33:03.571Z,2.38
2022-09-12T00:38:16.283Z,2.92
2022-09-12T00:40:51.527Z,2.00
2022-09-12T00:43:39.952Z,2.20
2022-09-12T00:46:23.817Z,3.08
2022-09-12T00:49:01.583Z,2.28
2022-09-12T00:51:37.646Z,2.45
2022-09-12T00:54:17.484Z,2.60
2022-09-12T00:56:56.553Z,2.58
2022-09-12T00:59:36.418Z,2.42
2022-09-12T01:02:10.616Z,2.13
2022-09-12T01:04:47.994Z,2.38
2022-09-12T01:07:24.128Z,2.40
2022-09-12T01:09:58.018Z,1.90
2022-09-12T01:15:07.816Z,2.50
2022-09-12T01:17:52.328Z,2.17
2022-09-12T01:20:54.898Z,2.38
2022-09-12T01:24:03.839Z,2.30
2022-09-12T01:27:12.473Z,1.77
2022-09-12T01:30:25.412Z,2.45
2022-09-12T01:33:24.262Z,2.10
2022-09-12T01:36:12.909Z,1.85
2022-09-12T01:38:50.714Z,2.17
2022-09-12T01:41:30.544Z,2.33
2022-09-12T01:44:13.998Z,2.55
2022-09-12T01:46:54.233Z,2.22
2022-09-12T01:49:34.327Z,2.17
2022-09-12T01:52:13.642Z,2.42
2022-09-12T01:54:52.310Z,2.58
2022-09-12T01:57:33.102Z,2.17
2022-09-12T02:00:12.544Z,2.10
2022-09-12T02:02:55.275Z,2.15
2022-09-12T02:05:35.050Z,2.53
2022-09-12T02:08:12.418Z,2.08
2022-09-12T02:10:52.446Z,2.22
2022-09-12T02:13:30.553Z,2.10
2022-09-12T02:16:10.865Z,2.33
2022-09-12T02:18:48.243Z,2.30
2022-09-12T02:21:25.901Z,1.98
2022-09-12T02:24:03.772Z,2.05
2022-09-12T02:26:45.441Z,2.25
2022-09-12T02:29:19.344Z,2.17
2022-09-12T02:34:41.293Z,2.60
2022-09-12T02:37:27.354Z,2.00
2022-09-12T02:40:02.256Z,2.15
2022-09-12T02:42:38.238Z,2.10
2022-09-12T02:45:13.160Z,2.22
2022-09-12T02:47:51.242Z,1.95
2022-09-12T02:50:25.347Z,2.17
2022-09-12T02:53:04.798Z,2.13
2022-09-12T02:55:40.904Z,2.38
2022-09-12T02:58:19.613Z,1.92
2022-09-12T03:00:58.433Z,1.95
2022-09-12T03:03:58.807Z,2.08
2022-09-12T03:06:38.581Z,2.58
2022-09-12T03:09:20.230Z,2.10
2022-09-12T03:12:11.916Z,2.08
2022-09-12T03:15:08.947Z,2.30
2022-09-12T03:17:57.821Z,2.30
2022-09-12T03:20:41.731Z,2.17
2022-09-12T03:23:25.576Z,2.50
2022-09-12T03:26:07.248Z,2.17
2022-09-12T03:28:42.161Z,1.90
2022-09-12T03:31:17.103Z,2.05
2022-09-12T03:33:50.910Z,2.70
2022-09-12T03:38:59.501Z,1.98
2022-09-12T03:44:08.225Z,2.00
2022-09-12T03:49:15.844Z,2.07
2022-09-12T03:51:49.679Z,1.90
2022-09-12T03:56:58.675Z,2.27
2022-09-12T03:59:32.655Z,2.22
2022-09-12T04:02:06.779Z,2.13
2022-09-12T04:04:42.827Z,1.85
2022-09-12T04:07:17.343Z,2.20
2022-09-12T04:09:51.216Z,2.22
2022-09-12T04:14:59.987Z,1.98
2022-09-12T04:17:34.848Z,1.88
2022-09-12T04:20:09.301Z,2.15
2022-09-12T04:22:43.184Z,1.70
2022-09-12T04:27:52.669Z,2.05
2022-09-12T04:30:26.586Z,2.25
2022-09-12T04:33:02.202Z,2.70
2022-09-12T04:35:37.841Z,1.77
2022-09-12T04:38:11.691Z,2.20
2022-09-12T04:43:20.448Z,2.13
2022-09-12T04:45:54.353Z,1.88
2022-09-12T04:51:08.688Z,1.90
2022-09-12T04:53:42.970Z,2.13
2022-09-12T04:56:16.900Z,2.33
2022-09-12T04:58:52.360Z,2.35
2022-09-12T05:01:26.426Z,2.50
2022-09-12T05:04:00.614Z,2.40
2022-09-12T05:06:36.941Z,2.60
2022-09-12T05:09:14.257Z,2.55
2022-09-12T05:12:05.019Z,2.35
2022-09-12T05:14:40.779Z,2.60
2022-09-12T05:17:14.660Z,2.05
2022-09-12T05:19:50.045Z,2.15
2022-09-12T05:22:23.952Z,2.53
2022-09-12T05:27:31.457Z,2.20
2022-09-12T05:30:08.262Z,2.25
2022-09-12T05:32:42.135Z,2.47
2022-09-12T05:35:16.321Z,2.25
2022-09-12T05:37:50.156Z,2.20
2022-09-12T05:42:57.831Z,2.07
2022-09-12T05:45:33.418Z,2.35
2022-09-12T05:48:07.302Z,2.13
2022-09-12T05:53:16.457Z,2.35
2022-09-12T05:55:50.603Z,2.40
2022-09-12T05:58:24.498Z,2.05
2022-09-12T06:03:37.363Z,2.17
2022-09-12T06:06:13.822Z,1.80
2022-09-12T06:08:49.440Z,2.28
2022-09-12T06:11:25.001Z,2.30
2022-09-12T06:14:00.193Z,1.95
2022-09-12T06:16:37.364Z,2.30
2022-09-12T06:19:16.199Z,2.30
2022-09-12T06:21:53.395Z,2.95
2022-09-12T06:24:27.568Z,2.63
2022-09-12T06:27:02.531Z,2.63
2022-09-12T06:29:36.359Z,2.10
2022-09-12T06:34:47.825Z,2.33
2022-09-12T06:37:21.662Z,2.45
2022-09-12T06:45:04.179Z,3.17
2022-09-12T06:47:39.573Z,2.38
2022-09-12T06:50:13.545Z,2.50
2022-09-12T06:52:50.008Z,2.30
2022-09-12T06:55:27.635Z,2.80
2022-09-12T06:58:01.813Z,2.33
2022-09-12T07:00:35.680Z,2.70
2022-09-12T07:05:45.461Z,2.80
2022-09-12T07:08:19.384Z,2.58
2022-09-12T07:13:26.850Z,2.67
2022-09-12T07:16:03.731Z,2.55
2022-09-12T07:18:40.019Z,3.10
2022-09-12T07:21:15.433Z,2.65
2022-09-12T07:23:51.980Z,2.78
2022-09-12T07:26:26.877Z,3.15
2022-09-12T07:29:19.068Z,2.53
2022-09-12T07:31:54.932Z,2.80
2022-09-12T07:34:30.838Z,3.05
2022-09-12T07:37:05.307Z,2.63
2022-09-12T07:39:39.248Z,2.63
2022-09-12T07:42:13.452Z,2.85
2022-09-12T07:44:47.651Z,3.25
2022-09-12T07:47:21.696Z,3.10
2022-09-12T07:49:57.188Z,2.97
2022-09-12T07:52:31.459Z,2.67
2022-09-12T07:55:05.809Z,2.65
2022-09-12T07:57:40.012Z,3.25
2022-09-12T08:00:14.948Z,2.92
2022-09-12T08:02:53.501Z,3.17
2022-09-12T08:05:30.128Z,3.28
2022-09-12T08:08:04.415Z,2.50
2022-09-12T08:10:38.542Z,2.30
2022-09-12T08:13:12.454Z,2.85
2022-09-12T08:15:46.430Z,2.20
2022-09-12T08:18:20.326Z,2.38
2022-09-12T08:23:33.414Z,2.67
2022-09-12T08:26:08.443Z,2.90
2022-09-12T08:28:46.345Z,3.10
2022-09-12T08:31:22.367Z,3.22
2022-09-12T08:33:57.803Z,3.30
2022-09-12T08:36:34.289Z,2.88
2022-09-12T08:39:09.328Z,2.25
2022-09-12T08:41:45.289Z,2.80
2022-09-12T08:44:39.883Z,2.70
2022-09-12T08:47:23.330Z,2.40
2022-09-12T08:50:06.726Z,2.78
2022-09-12T08:52:51.620Z,2.53
2022-09-12T08:55:33.361Z,2.83
2022-09-12T08:58:14.829Z,2.88
2022-09-12T09:00:56.158Z,2.85
2022-09-12T09:03:59.898Z,2.67
2022-09-12T09:07:03.971Z,3.05
2022-09-12T09:09:49.791Z,3.05
2022-09-12T09:12:31.773Z,3.22
2022-09-12T09:15:23.854Z,3.65
2022-09-12T09:18:04.567Z,3.22
2022-09-12T09:20:45.747Z,3.05
2022-09-12T09:23:27.064Z,3.85
2022-09-12T09:26:08.464Z,2.92
2022-09-12T09:28:46.641Z,2.65
2022-09-12T09:31:22.670Z,5.20
2022-09-12T09:33:56.902Z,3.20
2022-09-12T09:36:41.066Z,2.35
2022-09-12T09:39:37.115Z,2.40
2022-09-12T09:42:25.947Z,2.30
2022-09-12T09:45:04.485Z,2.65
2022-09-12T09:47:38.592Z,2.53
2022-09-12T09:50:17.834Z,2.40
2022-09-12T09:52:53.204Z,2.33
2022-09-12T09:55:32.226Z,2.40
2022-09-12T09:58:07.512Z,2.50
2022-09-12T10:00:42.258Z,2.38
2022-09-12T10:03:32.423Z,2.30
2022-09-12T10:06:23.407Z,2.58
2022-09-12T10:09:09.179Z,2.80
2022-09-12T10:11:45.943Z,2.53
2022-09-12T10:14:38.073Z,2.15
2022-09-12T10:17:33.790Z,2.90
2022-09-12T10:20:31.261Z,2.30
2022-09-12T10:23:21.565Z,2.65
2022-09-12T10:25:58.917Z,2.40
2022-09-12T10:28:37.517Z,2.25
2022-09-12T10:31:29.624Z,2.60
2022-09-12T10:34:03.563Z,2.40
2022-09-12T10:36:39.099Z,2.85
2022-09-12T10:39:19.506Z,2.22
2022-09-12T10:41:53.340Z,2.67
2022-09-12T10:47:21.611Z,2.45
2022-09-12T10:50:22.935Z,3.17
2022-09-12T10:53:14.008Z,2.67
2022-09-12T10:56:06.852Z,2.55
2022-09-12T10:59:08.816Z,2.53
2022-09-12T11:01:46.720Z,2.17
2022-09-12T11:04:38.289Z,2.53
2022-09-12T11:07:37.004Z,2.53
2022-09-12T11:10:36.309Z,2.55
2022-09-12T11:13:25.824Z,2.60
2022-09-12T11:16:10.283Z,2.53
2022-09-12T11:19:17.203Z,2.13
2022-09-12T11:22:09.128Z,2.58
2022-09-12T11:24:55.474Z,2.78
2022-09-12T11:27:49.523Z,2.70
2022-09-12T11:30:23.864Z,2.42
2022-09-12T11:33:08.734Z,2.60
2022-09-12T11:35:53.053Z,2.60
2022-09-12T11:38:52.218Z,2.58
2022-09-12T11:41:31.655Z,2.80
2022-09-12T11:44:16.138Z,2.42
2022-09-12T11:46:52.052Z,2.42
2022-09-12T11:49:35.730Z,2.55
2022-09-12T11:52:16.796Z,3.22
2022-09-12T11:54:59.167Z,3.33
2022-09-12T11:57:40.762Z,3.58
2022-09-12T12:00:19.661Z,4.10
2022-09-12T12:03:04.408Z,3.22
2022-09-12T12:05:44.386Z,4.18
2022-09-12T12:08:18.787Z,4.25
2022-09-12T12:10:57.455Z,5.70
2022-09-12T12:13:34.653Z,5.90
2022-09-12T12:16:13.265Z,5.30
2022-09-12T12:18:47.675Z,5.30
2022-09-12T12:21:36.641Z,6.57
2022-09-12T12:24:20.400Z,6.07
2022-09-12T12:27:01.238Z,5.60
2022-09-12T12:29:45.979Z,5.43
2022-09-12T12:32:27.003Z,5.32
2022-09-12T12:35:38.880Z,5.47
2022-09-12T12:38:29.395Z,5.47
2022-09-12T12:41:40.587Z,5.18
2022-09-12T12:44:50.498Z,5.50
2022-09-12T12:47:27.728Z,5.32
2022-09-12T12:50:03.932Z,4.85
2022-09-12T12:52:50.070Z,4.57
2022-09-12T12:55:27.470Z,5.03
2022-09-12T12:58:02.559Z,4.88
2022-09-12T13:00:40.049Z,3.90
2022-09-12T13:03:29.025Z,4.57
2022-09-12T13:06:04.541Z,3.65
2022-09-12T13:08:44.827Z,4.05
2022-09-12T13:11:30.979Z,3.67
2022-09-12T13:14:07.178Z,3.65
2022-09-12T13:16:55.275Z,3.45
2022-09-12T13:19:32.798Z,3.65
2022-09-12T13:22:08.400Z,3.35
2022-09-12T13:24:44.873Z,3.72
2022-09-12T13:27:21.475Z,2.60
2022-09-12T13:30:08.720Z,3.78
2022-09-12T13:32:45.013Z,3.40
2022-09-12T13:35:27.694Z,3.13
2022-09-12T13:38:10.025Z,2.95
2022-09-12T13:40:58.747Z,2.67
2022-09-12T13:43:40.788Z,3.03
2022-09-12T13:46:19.606Z,2.95
2022-09-12T13:48:55.234Z,3.03
2022-09-12T13:51:32.256Z,3.33
2022-09-12T13:54:07.559Z,4.30
2022-09-12T13:56:49.874Z,3.30
2022-09-12T13:59:23.824Z,2.80
2022-09-12T14:01:57.706Z,2.70
2022-09-12T14:07:26.580Z,3.47
2022-09-12T14:10:02.219Z,2.90
2022-09-12T14:12:44.045Z,2.72
2022-09-12T14:15:23.724Z,1.83
2022-09-12T14:17:59.847Z,3.67
2022-09-12T14:20:39.994Z,2.38
2022-09-12T14:23:22.697Z,2.70
2022-09-12T14:25:58.798Z,2.55
2022-09-12T14:28:36.156Z,2.60
2022-09-12T14:31:24.571Z,2.10
2022-09-12T14:34:11.144Z,3.50
2022-09-12T14:36:49.695Z,2.70
2022-09-12T14:39:29.877Z,2.63
2022-09-12T14:42:07.907Z,2.50
2022-09-12T14:44:43.601Z,2.97
2022-09-12T14:47:24.854Z,2.75
2022-09-12T14:49:59.094Z,2.95
2022-09-12T14:52:35.848Z,2.35
2022-09-12T14:55:25.162Z,1.85
2022-09-12T14:58:27.902Z,2.25
2022-09-12T15:01:03.950Z,2.78
2022-09-12T15:03:39.938Z,2.58
2022-09-12T15:06:23.812Z,1.65
2022-09-12T15:09:01.406Z,2.00
2022-09-12T15:11:35.385Z,1.50
2022-09-12T15:14:15.157Z,1.85
2022-09-12T15:16:49.232Z,1.85
2022-09-12T15:19:23.298Z,2.25
2022-09-12T15:21:57.238Z,1.85
2022-09-12T15:24:32.625Z,1.70
2022-09-12T15:27:10.711Z,1.52
2022-09-12T15:29:44.554Z,1.55
2022-09-12T15:34:58.307Z,1.67
2022-09-12T15:37:32.437Z,1.63
2022-09-12T15:40:09.563Z,1.55
2022-09-12T15:42:43.937Z,1.45
2022-09-12T15:45:21.836Z,1.88
2022-09-12T15:47:55.970Z,2.10
2022-09-12T15:50:29.996Z,1.50
2022-09-12T15:53:04.284Z,1.77
2022-09-12T15:55:39.653Z,1.50
2022-09-12T15:58:14.198Z,2.03
2022-09-12T16:00:48.046Z,1.45
2022-09-12T16:03:27.026Z,1.60
2022-09-12T16:06:03.459Z,1.70
2022-09-12T16:08:37.657Z,1.83
2022-09-12T16:11:18.415Z,1.20
2022-09-12T16:13:53.946Z,1.92
2022-09-12T16:16:28.196Z,2.22
2022-09-12T16:19:02.555Z,2.92
2022-09-12T16:21:36.820Z,3.25
2022-09-12T16:24:10.757Z,2.55
2022-09-12T16:26:46.195Z,2.67
2022-09-12T16:29:20.674Z,2.53
2022-09-12T16:31:54.654Z,3.35
2022-09-12T16:37:03.663Z,2.25
2022-09-12T16:39:37.847Z,1.65
2022-09-12T16:42:13.175Z,3.50
2022-09-12T16:44:47.803Z,3.15
2022-09-12T16:47:21.798Z,3.10
2022-09-12T16:49:55.705Z,3.45
2022-09-12T16:52:30.396Z,3.30
2022-09-12T16:55:04.651Z,3.03
2022-09-12T16:57:40.178Z,4.20
2022-09-12T17:00:15.725Z,2.10
2022-09-12T17:02:49.727Z,3.63
2022-09-12T17:05:24.155Z,3.55
2022-09-12T17:07:58.442Z,2.78
2022-09-12T17:10:32.911Z,3.63
2022-09-12T17:13:08.370Z,4.07
2022-09-12T17:15:42.337Z,3.75
2022-09-12T17:18:16.261Z,3.08
2022-09-12T17:20:50.925Z,3.75
2022-09-12T17:23:24.967Z,3.17
2022-09-12T17:25:59.318Z,3.30
2022-09-12T17:28:35.957Z,3.72
2022-09-12T17:31:14.690Z,3.70
2022-09-12T17:33:50.724Z,4.90
2022-09-12T17:36:26.276Z,3.55
2022-09-12T17:39:03.624Z,3.90
2022-09-12T17:41:39.419Z,3.63
2022-09-12T17:44:17.555Z,3.90
2022-09-12T17:46:53.447Z,3.80
2022-09-12T17:49:29.154Z,5.07
2022-09-12T17:52:04.649Z,4.70
2022-09-12T17:54:40.163Z,4.40
2022-09-12T17:57:15.694Z,5.25
2022-09-12T17:59:53.523Z,3.78
2022-09-12T18:02:31.340Z,4.30
2022-09-12T18:05:10.958Z,4.40
2022-09-12T18:07:46.611Z,5.45
2022-09-12T18:10:22.347Z,4.20
2022-09-12T18:12:58.534Z,4.80
2022-09-12T18:15:36.216Z,4.88
2022-09-12T18:18:11.936Z,5.57
2022-09-12T18:20:53.548Z,6.13
2022-09-12T18:23:29.322Z,6.60
2022-09-12T18:26:06.372Z,5.95
2022-09-12T18:28:43.828Z,6.25
2022-09-12T18:31:22.845Z,6.55
2022-09-12T18:34:00.339Z,5.18
2022-09-12T18:36:35.641Z,6.40
2022-09-12T18:39:11.544Z,6.03
2022-09-12T18:41:46.939Z,6.53
2022-09-12T18:44:22.237Z,8.02
2022-09-12T18:46:58.753Z,6.55
2022-09-12T18:49:34.173Z,5.93
2022-09-12T18:52:10.174Z,6.88
2022-09-12T18:54:45.636Z,9.18
2022-09-12T18:57:21.141Z,8.55
2022-09-12T19:00:00.391Z,7.22
2022-09-12T19:02:37.927Z,8.13
2022-09-12T19:05:14.565Z,8.00
2022-09-12T19:07:50.172Z,7.85
2022-09-12T19:10:26.502Z,8.45
2022-09-12T19:13:02.849Z,8.90
2022-09-12T19:15:43.669Z,9.77
2022-09-12T19:18:19.918Z,8.88
2022-09-12T19:20:58.291Z,9.75
2022-09-12T19:23:34.301Z,7.95
2022-09-12T19:26:15.034Z,8.68
2022-09-12T19:28:49.803Z,7.93
2022-09-12T19:31:24.684Z,9.60
2022-09-12T19:34:03.081Z,8.43
2022-09-12T19:36:46.674Z,9.55
2022-09-12T19:41:55.389Z,9.45
2022-09-12T19:44:31.666Z,9.00
2022-09-12T19:47:06.168Z,8.77
2022-09-12T19:49:42.014Z,9.77
2022-09-12T19:52:17.568Z,7.75
2022-09-12T19:54:52.260Z,9.07
2022-09-12T19:57:28.168Z,9.27
2022-09-12T20:00:02.485Z,10.00
2022-09-12T20:02:40.085Z,9.40
2022-09-12T20:05:15.709Z,9.18
2022-09-12T20:07:49.965Z,9.98
2022-09-12T20:10:23.917Z,9.02
2022-09-12T20:12:57.963Z,8.65
2022-09-12T20:15:32.743Z,10.85
2022-09-12T20:18:06.899Z,9.52
2022-09-12T20:20:42.540Z,10.05
2022-09-12T20:23:16.701Z,9.23
2022-09-12T20:25:51.243Z,8.77
2022-09-12T20:28:25.272Z,10.40
2022-09-12T20:31:03.088Z,10.77
2022-09-12T20:33:37.065Z,9.05
2022-09-12T20:38:50.669Z,10.57
2022-09-12T20:41:25.150Z,9.00
2022-09-12T20:44:00.012Z,8.77
2022-09-12T20:46:34.464Z,9.85
2022-09-12T20:49:09.034Z,9.20
2022-09-12T20:51:44.469Z,9.68
2022-09-12T20:54:18.582Z,9.52
2022-09-12T20:56:53.148Z,9.15
2022-09-12T20:59:27.209Z,8.30
2022-09-12T21:02:01.373Z,8.77
2022-09-12T21:04:35.431Z,8.50
2022-09-12T21:07:11.018Z,8.40
2022-09-12T21:09:45.584Z,7.75
2022-09-12T21:12:19.549Z,7.45
2022-09-12T21:14:53.562Z,7.28
2022-09-12T21:17:27.554Z,8.38
2022-09-12T21:20:01.511Z,8.13
2022-09-12T21:22:37.014Z,6.68
2022-09-12T21:25:11.487Z,7.10
2022-09-12T21:27:45.690Z,7.38
2022-09-12T21:30:19.984Z,7.78
2022-09-12T21:32:53.972Z,7.57
2022-09-12T21:35:28.051Z,6.75
2022-09-12T21:38:03.649Z,7.70
2022-09-12T21:40:37.723Z,7.28
2022-09-12T21:43:13.032Z,6.63
2022-09-12T21:45:47.248Z,7.43
2022-09-12T21:48:21.208Z,6.03
2022-09-12T21:50:55.701Z,7.32
2022-09-12T21:53:31.282Z,6.50
2022-09-12T21:56:07.292Z,7.15
2022-09-12T21:58:41.477Z,6.22
2022-09-12T22:01:18.653Z,7.25
2022-09-12T22:03:53.193Z,6.18
2022-09-12T22:06:27.446Z,5.97
2022-09-12T22:09:03.450Z,7.32
2022-09-12T22:11:37.995Z,6.45
2022-09-12T22:14:12.445Z,7.07
2022-09-12T22:16:46.777Z,6.78
2022-09-12T22:19:21.241Z,5.88
2022-09-12T22:22:12.607Z,6.63
2022-09-12T22:24:48.487Z,6.70
2022-09-12T22:27:22.901Z,6.65
2022-09-12T22:29:57.365Z,6.28
2022-09-12T22:32:31.548Z,6.85
2022-09-12T22:35:07.012Z,6.03
2022-09-12T22:37:41.333Z,6.20
2022-09-12T22:40:17.404Z,6.25
2022-09-12T22:42:53.848Z,6.85
2022-09-12T22:45:28.185Z,6.53
2022-09-12T22:48:05.100Z,5.68
2022-09-12T22:50:43.488Z,6.78
2022-09-12T22:53:17.712Z,5.88
2022-09-12T22:55:53.927Z,6.03
2022-09-12T22:58:28.118Z,5.80
2022-09-12T23:01:02.437Z,5.28
2022-09-12T23:03:37.238Z,5.90
2022-09-12T23:06:12.442Z,5.55
2022-09-12T23:08:47.035Z,5.13
2022-09-12T23:11:22.927Z,5.72
2022-09-12T23:13:57.409Z,5.55
2022-09-12T23:16:32.572Z,5.60
2022-09-12T23:19:07.141Z,4.85
2022-09-12T23:21:41.557Z,5.38
2022-09-12T23:24:16.030Z,5.38
2022-09-12T23:26:51.966Z,4.75
2022-09-12T23:29:26.558Z,5.70
2022-09-12T23:32:01.055Z,5.28
2022-09-12T23:34:35.426Z,5.20
2022-09-12T23:37:09.747Z,5.50
2022-09-12T23:39:44.362Z,5.38
2022-09-12T23:42:20.123Z,5.70
2022-09-12T23:44:54.451Z,4.82
2022-09-12T23:47:28.971Z,4.80
2022-09-12T23:50:03.237Z,4.68
2022-09-12T23:52:37.479Z,4.53
2022-09-12T23:55:11.846Z,4.13
2022-09-12T23:57:47.522Z,4.25
